sensor_id;sensor_type;location;lat;lon;timestamp;pressure;altitude;pressure_sealevel;temperature;humidity
76815;BME280;65768;49.906;19.384;2023-04-24T01:19:10;97332.61;;;10.72;54.37
76815;BME280;65768;49.906;19.384;2023-04-24T01:25:44;97327.23;;;10.59;54.27
76815;BME280;65768;49.906;19.384;2023-04-24T01:32:29;97325.70;;;10.69;53.35
76815;BME280;65768;49.906;19.384;2023-04-24T01:42:39;97308.83;;;10.55;54.03
76815;BME280;65768;49.906;19.384;2023-04-24T01:55:50;97304.17;;;10.51;52.06
76815;BME280;65768;49.906;19.384;2023-04-24T01:59:28;97300.81;;;10.67;50.51
76815;BME280;65768;49.906;19.384;2023-04-24T02:09:04;97285.03;;;10.37;52.61
76815;BME280;65768;49.906;19.384;2023-04-24T02:12:13;97282.41;;;10.37;52.74
76815;BME280;65768;49.906;19.384;2023-04-24T02:19:17;97277.86;;;10.63;51.02
76815;BME280;65768;49.906;19.384;2023-04-24T02:46:07;97253.15;;;10.23;52.72
76815;BME280;65768;49.906;19.384;2023-04-24T02:55:56;97243.20;;;10.26;52.85
76815;BME280;65768;49.906;19.384;2023-04-24T03:50:47;97257.45;;;8.36;63.93
76815;BME280;65768;49.906;19.384;2023-04-24T04:51:19;97254.83;;;9.58;61.51
76815;BME280;65768;49.906;19.384;2023-04-24T05:22:00;97254.56;;;11.13;63.32
76815;BME280;65768;49.906;19.384;2023-04-24T05:34:41;97252.20;;;11.57;67.90
76815;BME280;65768;49.906;19.384;2023-04-24T05:41:11;97252.70;;;12.10;63.90
76815;BME280;65768;49.906;19.384;2023-04-24T05:47:22;97250.55;;;12.53;63.79
76815;BME280;65768;49.906;19.384;2023-04-24T05:56:50;97241.58;;;13.20;63.78
76815;BME280;65768;49.906;19.384;2023-04-24T05:59:50;97238.50;;;13.38;61.22
76815;BME280;65768;49.906;19.384;2023-04-24T06:02:37;97236.67;;;13.60;60.70
76815;BME280;65768;49.906;19.384;2023-04-24T06:05:33;97239.50;;;13.71;59.94
76815;BME280;65768;49.906;19.384;2023-04-24T06:08:04;97236.88;;;13.71;60.83
76815;BME280;65768;49.906;19.384;2023-04-24T06:10:49;97237.16;;;13.61;61.60
76815;BME280;65768;49.906;19.384;2023-04-24T06:13:58;97238.02;;;13.81;62.55
76815;BME280;65768;49.906;19.384;2023-04-24T06:16:47;97236.74;;;14.00;62.36
76815;BME280;65768;49.906;19.384;2023-04-24T06:19:39;97235.10;;;14.09;61.34
76815;BME280;65768;49.906;19.384;2023-04-24T06:22:26;97231.56;;;14.10;59.89
76815;BME280;65768;49.906;19.384;2023-04-24T06:25:01;97225.01;;;14.24;60.17
76815;BME280;65768;49.906;19.384;2023-04-24T06:27:54;97229.00;;;14.43;61.60
76815;BME280;65768;49.906;19.384;2023-04-24T06:30:38;97225.22;;;14.58;60.60
76815;BME280;65768;49.906;19.384;2023-04-24T06:33:22;97231.91;;;14.85;60.69
76815;BME280;65768;49.906;19.384;2023-04-24T06:36:15;97224.02;;;15.05;59.26
76815;BME280;65768;49.906;19.384;2023-04-24T06:39:11;97221.64;;;15.29;58.60
76815;BME280;65768;49.906;19.384;2023-04-24T06:41:55;97212.94;;;15.57;56.36
76815;BME280;65768;49.906;19.384;2023-04-24T06:44:29;97206.05;;;15.78;55.22
76815;BME280;65768;49.906;19.384;2023-04-24T06:47:09;97203.52;;;15.99;54.32
76815;BME280;65768;49.906;19.384;2023-04-24T06:50:01;97194.11;;;16.33;52.84
76815;BME280;65768;49.906;19.384;2023-04-24T06:52:41;97192.09;;;16.58;52.58
76815;BME280;65768;49.906;19.384;2023-04-24T06:55:23;97190.66;;;16.63;50.07
76815;BME280;65768;49.906;19.384;2023-04-24T06:57:58;97192.00;;;17.03;48.09
76815;BME280;65768;49.906;19.384;2023-04-24T07:00:39;97193.67;;;17.06;48.97
76815;BME280;65768;49.906;19.384;2023-04-24T07:03:14;97193.33;;;17.22;45.76
76815;BME280;65768;49.906;19.384;2023-04-24T07:05:46;97194.76;;;17.46;43.44
76815;BME280;65768;49.906;19.384;2023-04-24T07:08:16;97196.61;;;17.48;42.93
76815;BME280;65768;49.906;19.384;2023-04-24T07:10:45;97193.56;;;17.53;41.62
76815;BME280;65768;49.906;19.384;2023-04-24T07:13:17;97191.39;;;17.58;41.90
76815;BME280;65768;49.906;19.384;2023-04-24T07:15:51;97191.70;;;17.84;44.19
76815;BME280;65768;49.906;19.384;2023-04-24T07:18:25;97185.10;;;18.05;45.16
76815;BME280;65768;49.906;19.384;2023-04-24T07:20:54;97179.93;;;18.29;44.01
76815;BME280;65768;49.906;19.384;2023-04-24T07:23:25;97178.67;;;18.33;41.79
76815;BME280;65768;49.906;19.384;2023-04-24T07:25:53;97176.45;;;18.24;42.38
76815;BME280;65768;49.906;19.384;2023-04-24T07:28:21;97175.48;;;18.15;42.39
76815;BME280;65768;49.906;19.384;2023-04-24T07:30:50;97174.33;;;18.09;42.06
76815;BME280;65768;49.906;19.384;2023-04-24T07:33:18;97176.31;;;18.08;39.81
76815;BME280;65768;49.906;19.384;2023-04-24T07:35:46;97176.61;;;18.28;40.50
76815;BME280;65768;49.906;19.384;2023-04-24T07:38:18;97173.77;;;18.21;41.11
76815;BME280;65768;49.906;19.384;2023-04-24T07:40:50;97172.23;;;18.16;41.74
76815;BME280;65768;49.906;19.384;2023-04-24T07:43:20;97177.34;;;18.39;43.93
76815;BME280;65768;49.906;19.384;2023-04-24T07:45:50;97169.95;;;18.49;39.31
76815;BME280;65768;49.906;19.384;2023-04-24T07:48:18;97169.29;;;18.48;42.52
76815;BME280;65768;49.906;19.384;2023-04-24T07:50:47;97169.62;;;18.34;42.10
76815;BME280;65768;49.906;19.384;2023-04-24T07:53:18;97170.09;;;18.43;42.05
76815;BME280;65768;49.906;19.384;2023-04-24T07:55:47;97171.77;;;18.73;40.48
76815;BME280;65768;49.906;19.384;2023-04-24T07:58:15;97172.84;;;18.85;40.00
76815;BME280;65768;49.906;19.384;2023-04-24T08:00:43;97168.02;;;18.89;38.55
76815;BME280;65768;49.906;19.384;2023-04-24T08:03:12;97162.30;;;19.08;39.52
76815;BME280;65768;49.906;19.384;2023-04-24T08:05:40;97163.40;;;19.11;37.53
76815;BME280;65768;49.906;19.384;2023-04-24T08:08:09;97161.89;;;19.16;37.93
76815;BME280;65768;49.906;19.384;2023-04-24T08:10:37;97154.61;;;19.34;38.99
76815;BME280;65768;49.906;19.384;2023-04-24T08:13:06;97152.94;;;19.39;38.28
76815;BME280;65768;49.906;19.384;2023-04-24T08:15:34;97153.41;;;19.23;36.24
76815;BME280;65768;49.906;19.384;2023-04-24T08:18:11;97154.95;;;19.28;37.04
76815;BME280;65768;49.906;19.384;2023-04-24T08:20:41;97153.52;;;19.00;39.53
76815;BME280;65768;49.906;19.384;2023-04-24T08:23:10;97151.20;;;18.72;39.37
76815;BME280;65768;49.906;19.384;2023-04-24T08:25:38;97149.98;;;18.68;39.73
76815;BME280;65768;49.906;19.384;2023-04-24T08:28:08;97145.30;;;18.85;38.96
76815;BME280;65768;49.906;19.384;2023-04-24T08:30:38;97141.69;;;18.97;39.92
76815;BME280;65768;49.906;19.384;2023-04-24T08:33:06;97141.54;;;18.93;39.81
76815;BME280;65768;49.906;19.384;2023-04-24T08:35:35;97134.48;;;18.85;40.55
76815;BME280;65768;49.906;19.384;2023-04-24T08:38:03;97138.72;;;18.89;39.43
76815;BME280;65768;49.906;19.384;2023-04-24T08:40:33;97137.16;;;18.99;38.31
76815;BME280;65768;49.906;19.384;2023-04-24T08:43:06;97134.69;;;19.12;39.16
76815;BME280;65768;49.906;19.384;2023-04-24T08:45:34;97134.57;;;19.49;37.42
76815;BME280;65768;49.906;19.384;2023-04-24T08:48:06;97130.91;;;19.72;38.18
76815;BME280;65768;49.906;19.384;2023-04-24T08:50:35;97132.33;;;20.32;38.16
76815;BME280;65768;49.906;19.384;2023-04-24T08:53:06;97128.56;;;20.77;35.63
76815;BME280;65768;49.906;19.384;2023-04-24T08:55:35;97126.21;;;20.66;36.67
76815;BME280;65768;49.906;19.384;2023-04-24T08:58:05;97125.23;;;20.33;36.02
76815;BME280;65768;49.906;19.384;2023-04-24T09:00:33;97122.98;;;20.26;36.62
76815;BME280;65768;49.906;19.384;2023-04-24T09:03:04;97128.72;;;20.21;36.41
76815;BME280;65768;49.906;19.384;2023-04-24T09:05:33;97126.26;;;20.27;37.02
76815;BME280;65768;49.906;19.384;2023-04-24T09:08:04;97130.09;;;20.47;36.34
76815;BME280;65768;49.906;19.384;2023-04-24T09:10:34;97127.20;;;20.52;34.88
76815;BME280;65768;49.906;19.384;2023-04-24T09:13:02;97126.92;;;20.44;36.86
76815;BME280;65768;49.906;19.384;2023-04-24T09:15:31;97123.06;;;20.34;36.44
76815;BME280;65768;49.906;19.384;2023-04-24T09:18:00;97121.02;;;20.32;36.33
76815;BME280;65768;49.906;19.384;2023-04-24T09:20:28;97123.90;;;20.03;36.57
76815;BME280;65768;49.906;19.384;2023-04-24T09:22:57;97121.32;;;20.05;37.17
76815;BME280;65768;49.906;19.384;2023-04-24T09:25:32;97116.04;;;20.20;36.18
76815;BME280;65768;49.906;19.384;2023-04-24T09:28:05;97109.02;;;20.25;37.82
76815;BME280;65768;49.906;19.384;2023-04-24T09:30:34;97110.30;;;20.37;35.73
76815;BME280;65768;49.906;19.384;2023-04-24T09:33:15;97109.60;;;20.43;34.32
76815;BME280;65768;49.906;19.384;2023-04-24T09:35:50;97107.02;;;20.29;34.53
76815;BME280;65768;49.906;19.384;2023-04-24T09:38:39;97109.20;;;20.35;36.40
76815;BME280;65768;49.906;19.384;2023-04-24T09:41:08;97102.67;;;20.47;36.25
76815;BME280;65768;49.906;19.384;2023-04-24T09:43:36;97097.14;;;20.73;33.88
76815;BME280;65768;49.906;19.384;2023-04-24T09:46:06;97095.48;;;20.89;34.51
76815;BME280;65768;49.906;19.384;2023-04-24T09:48:37;97092.02;;;21.11;32.11
76815;BME280;65768;49.906;19.384;2023-04-24T09:51:06;97087.80;;;21.43;33.20
76815;BME280;65768;49.906;19.384;2023-04-24T09:53:45;97085.81;;;21.75;31.57
76815;BME280;65768;49.906;19.384;2023-04-24T09:56:13;97087.09;;;21.88;31.26
76815;BME280;65768;49.906;19.384;2023-04-24T09:58:42;97086.41;;;21.51;30.70
76815;BME280;65768;49.906;19.384;2023-04-24T10:01:10;97084.60;;;21.34;30.69
76815;BME280;65768;49.906;19.384;2023-04-24T10:03:41;97083.38;;;21.34;30.28
76815;BME280;65768;49.906;19.384;2023-04-24T10:06:12;97081.23;;;21.31;30.74
76815;BME280;65768;49.906;19.384;2023-04-24T10:08:40;97083.30;;;21.11;33.69
76815;BME280;65768;49.906;19.384;2023-04-24T10:11:09;97086.30;;;20.76;35.85
76815;BME280;65768;49.906;19.384;2023-04-24T10:13:39;97089.45;;;20.40;36.42
76815;BME280;65768;49.906;19.384;2023-04-24T10:16:08;97094.79;;;20.08;35.45
76815;BME280;65768;49.906;19.384;2023-04-24T10:18:36;97093.98;;;19.84;34.64
76815;BME280;65768;49.906;19.384;2023-04-24T10:21:06;97094.20;;;19.89;35.38
76815;BME280;65768;49.906;19.384;2023-04-24T10:23:35;97089.43;;;20.09;36.03
76815;BME280;65768;49.906;19.384;2023-04-24T10:26:03;97086.08;;;20.27;34.92
76815;BME280;65768;49.906;19.384;2023-04-24T10:28:33;97089.89;;;20.51;34.24
76815;BME280;65768;49.906;19.384;2023-04-24T10:31:02;97088.58;;;20.71;32.49
76815;BME280;65768;49.906;19.384;2023-04-24T10:33:30;97086.40;;;20.68;33.42
76815;BME280;65768;49.906;19.384;2023-04-24T10:36:00;97085.40;;;20.64;33.76
76815;BME280;65768;49.906;19.384;2023-04-24T10:38:29;97088.45;;;20.51;33.88
76815;BME280;65768;49.906;19.384;2023-04-24T10:41:09;97089.94;;;20.25;35.35
76815;BME280;65768;49.906;19.384;2023-04-24T10:43:44;97089.89;;;20.04;37.33
76815;BME280;65768;49.906;19.384;2023-04-24T10:46:19;97090.80;;;20.19;39.25
76815;BME280;65768;49.906;19.384;2023-04-24T10:48:54;97090.93;;;19.94;36.52
76815;BME280;65768;49.906;19.384;2023-04-24T10:51:24;97091.84;;;19.64;36.73
76815;BME280;65768;49.906;19.384;2023-04-24T10:53:57;97086.11;;;19.63;36.62
76815;BME280;65768;49.906;19.384;2023-04-24T10:56:25;97088.09;;;19.35;37.03
76815;BME280;65768;49.906;19.384;2023-04-24T10:58:54;97089.80;;;19.30;37.70
76815;BME280;65768;49.906;19.384;2023-04-24T11:01:30;97089.37;;;19.28;38.47
76815;BME280;65768;49.906;19.384;2023-04-24T11:04:01;97088.50;;;18.79;38.89
76815;BME280;65768;49.906;19.384;2023-04-24T11:06:36;97089.98;;;18.46;40.40
76815;BME280;65768;49.906;19.384;2023-04-24T11:09:10;97096.48;;;18.32;40.83
76815;BME280;65768;49.906;19.384;2023-04-24T11:11:46;97101.27;;;18.24;42.38
76815;BME280;65768;49.906;19.384;2023-04-24T11:14:15;97102.89;;;17.90;42.16
76815;BME280;65768;49.906;19.384;2023-04-24T11:16:51;97105.01;;;17.67;43.19
76815;BME280;65768;49.906;19.384;2023-04-24T11:19:26;97112.48;;;17.42;43.61
76815;BME280;65768;49.906;19.384;2023-04-24T11:22:22;97115.23;;;17.31;44.82
76815;BME280;65768;49.906;19.384;2023-04-24T11:24:53;97118.00;;;17.25;46.13
76815;BME280;65768;49.906;19.384;2023-04-24T11:27:22;97116.77;;;17.12;45.29
76815;BME280;65768;49.906;19.384;2023-04-24T11:34:59;97113.27;;;16.75;46.78
76815;BME280;65768;49.906;19.384;2023-04-24T11:37:34;97113.23;;;16.67;46.71
76815;BME280;65768;49.906;19.384;2023-04-24T11:40:12;97116.98;;;16.65;46.17
76815;BME280;65768;49.906;19.384;2023-04-24T11:42:47;97115.10;;;16.69;46.90
76815;BME280;65768;49.906;19.384;2023-04-24T11:45:25;97119.54;;;16.72;47.30
76815;BME280;65768;49.906;19.384;2023-04-24T11:47:55;97121.57;;;16.74;48.28
76815;BME280;65768;49.906;19.384;2023-04-24T11:50:25;97117.19;;;16.78;47.57
76815;BME280;65768;49.906;19.384;2023-04-24T11:52:56;97121.11;;;16.89;47.24
76815;BME280;65768;49.906;19.384;2023-04-24T11:55:29;97117.36;;;16.99;46.96
76815;BME280;65768;49.906;19.384;2023-04-24T11:57:59;97117.73;;;17.23;46.45
76815;BME280;65768;49.906;19.384;2023-04-24T12:00:40;97114.71;;;17.32;46.16
76815;BME280;65768;49.906;19.384;2023-04-24T12:03:09;97111.77;;;17.54;45.89
76815;BME280;65768;49.906;19.384;2023-04-24T12:05:40;97112.33;;;17.73;46.46
76815;BME280;65768;49.906;19.384;2023-04-24T12:08:12;97110.92;;;17.92;45.61
76815;BME280;65768;49.906;19.384;2023-04-24T12:10:54;97111.41;;;17.73;46.27
76815;BME280;65768;49.906;19.384;2023-04-24T12:13:25;97114.12;;;17.49;46.27
76815;BME280;65768;49.906;19.384;2023-04-24T12:15:57;97109.66;;;17.42;47.44
76815;BME280;65768;49.906;19.384;2023-04-24T12:18:26;97115.13;;;17.30;47.38
76815;BME280;65768;49.906;19.384;2023-04-24T12:21:17;97113.69;;;17.23;48.35
76815;BME280;65768;49.906;19.384;2023-04-24T12:23:48;97112.86;;;17.25;49.12
76815;BME280;65768;49.906;19.384;2023-04-24T12:26:20;97108.90;;;17.11;48.54
76815;BME280;65768;49.906;19.384;2023-04-24T12:28:49;97109.58;;;17.08;48.13
76815;BME280;65768;49.906;19.384;2023-04-24T12:31:20;97102.33;;;16.80;47.61
76815;BME280;65768;49.906;19.384;2023-04-24T12:33:55;97092.02;;;16.52;47.80
76815;BME280;65768;49.906;19.384;2023-04-24T12:36:24;97095.88;;;16.57;48.94
76815;BME280;65768;49.906;19.384;2023-04-24T12:38:58;97093.11;;;16.51;48.86
76815;BME280;65768;49.906;19.384;2023-04-24T12:41:36;97094.72;;;16.38;49.66
76815;BME280;65768;49.906;19.384;2023-04-24T12:44:10;97097.70;;;16.20;48.98
76815;BME280;65768;49.906;19.384;2023-04-24T12:46:41;97086.98;;;16.16;49.32
76815;BME280;65768;49.906;19.384;2023-04-24T12:51:58;97083.33;;;16.07;49.58
76815;BME280;65768;49.906;19.384;2023-04-24T12:54:47;97085.07;;;16.03;49.53
76815;BME280;65768;49.906;19.384;2023-04-24T12:57:27;97080.09;;;15.91;49.93
76815;BME280;65768;49.906;19.384;2023-04-24T13:00:04;97079.84;;;15.97;51.36
76815;BME280;65768;49.906;19.384;2023-04-24T13:05:39;97082.79;;;15.85;51.06
76815;BME280;65768;49.906;19.384;2023-04-24T13:08:16;97083.42;;;15.82;50.95
76815;BME280;65768;49.906;19.384;2023-04-24T13:10:50;97075.38;;;15.94;51.13
76815;BME280;65768;49.906;19.384;2023-04-24T13:13:29;97071.86;;;16.16;50.57
76815;BME280;65768;49.906;19.384;2023-04-24T13:16:01;97068.52;;;16.38;50.09
76815;BME280;65768;49.906;19.384;2023-04-24T13:18:32;97071.40;;;16.53;49.64
76815;BME280;65768;49.906;19.384;2023-04-24T13:21:06;97059.80;;;16.62;50.20
76815;BME280;65768;49.906;19.384;2023-04-24T13:23:37;97060.55;;;16.77;50.20
76815;BME280;65768;49.906;19.384;2023-04-24T13:26:06;97050.84;;;16.94;48.50
76815;BME280;65768;49.906;19.384;2023-04-24T13:28:35;97043.06;;;17.11;49.43
76815;BME280;65768;49.906;19.384;2023-04-24T13:31:07;97042.70;;;17.23;49.38
76815;BME280;65768;49.906;19.384;2023-04-24T13:33:38;97041.71;;;17.02;49.62
76815;BME280;65768;49.906;19.384;2023-04-24T13:36:15;97048.45;;;16.97;49.79
76815;BME280;65768;49.906;19.384;2023-04-24T13:38:45;97047.73;;;16.72;49.95
76815;BME280;65768;49.906;19.384;2023-04-24T13:41:14;97045.67;;;16.50;50.95
76815;BME280;65768;49.906;19.384;2023-04-24T13:43:45;97047.39;;;16.17;51.78
76815;BME280;65768;49.906;19.384;2023-04-24T13:46:14;97048.54;;;16.02;52.66
76815;BME280;65768;49.906;19.384;2023-04-24T13:48:48;97049.98;;;15.88;54.09
76815;BME280;65768;49.906;19.384;2023-04-24T13:51:23;97047.70;;;15.79;53.71
76815;BME280;65768;49.906;19.384;2023-04-24T13:53:54;97045.34;;;15.85;53.99
76815;BME280;65768;49.906;19.384;2023-04-24T13:56:26;97045.74;;;15.79;54.13
76815;BME280;65768;49.906;19.384;2023-04-24T13:58:59;97046.38;;;15.72;54.48
76815;BME280;65768;49.906;19.384;2023-04-24T14:01:31;97045.85;;;15.58;53.74
76815;BME280;65768;49.906;19.384;2023-04-24T14:04:08;97044.79;;;15.58;53.16
76815;BME280;65768;49.906;19.384;2023-04-24T14:06:44;97044.27;;;15.53;53.63
76815;BME280;65768;49.906;19.384;2023-04-24T14:09:21;97047.45;;;15.57;55.08
76815;BME280;65768;49.906;19.384;2023-04-24T14:11:58;97051.13;;;15.58;54.47
76815;BME280;65768;49.906;19.384;2023-04-24T14:14:41;97053.03;;;15.49;55.53
76815;BME280;65768;49.906;19.384;2023-04-24T14:17:15;97054.05;;;15.45;55.14
76815;BME280;65768;49.906;19.384;2023-04-24T14:19:49;97053.79;;;15.39;55.81
76815;BME280;65768;49.906;19.384;2023-04-24T14:22:38;97056.52;;;15.26;56.35
76815;BME280;65768;49.906;19.384;2023-04-24T14:25:22;97058.63;;;15.26;57.26
76815;BME280;65768;49.906;19.384;2023-04-24T14:27:54;97058.38;;;15.23;57.35
76815;BME280;65768;49.906;19.384;2023-04-24T14:30:34;97056.09;;;15.33;57.81
76815;BME280;65768;49.906;19.384;2023-04-24T14:33:14;97063.73;;;15.54;58.04
76815;BME280;65768;49.906;19.384;2023-04-24T14:35:54;97064.25;;;15.54;57.80
76815;BME280;65768;49.906;19.384;2023-04-24T14:38:28;97059.16;;;15.50;57.45
76815;BME280;65768;49.906;19.384;2023-04-24T14:41:01;97060.52;;;15.37;58.49
76815;BME280;65768;49.906;19.384;2023-04-24T14:43:49;97066.20;;;15.21;58.41
76815;BME280;65768;49.906;19.384;2023-04-24T14:46:21;97069.33;;;15.22;58.77
76815;BME280;65768;49.906;19.384;2023-04-24T14:51:45;97071.15;;;15.39;58.20
76815;BME280;65768;49.906;19.384;2023-04-24T14:54:57;97069.88;;;15.26;59.33
76815;BME280;65768;49.906;19.384;2023-04-24T14:57:42;97073.98;;;15.24;59.62
76815;BME280;65768;49.906;19.384;2023-04-24T15:00:16;97079.16;;;15.12;59.62
76815;BME280;65768;49.906;19.384;2023-04-24T15:03:05;97083.92;;;14.87;60.12
76815;BME280;65768;49.906;19.384;2023-04-24T15:05:36;97086.41;;;14.86;61.11
76815;BME280;65768;49.906;19.384;2023-04-24T15:08:14;97092.14;;;14.83;61.55
76815;BME280;65768;49.906;19.384;2023-04-24T15:10:48;97086.02;;;14.82;61.49
76815;BME280;65768;49.906;19.384;2023-04-24T15:13:23;97088.19;;;15.10;61.24
76815;BME280;65768;49.906;19.384;2023-04-24T15:16:00;97087.14;;;15.38;59.40
76815;BME280;65768;49.906;19.384;2023-04-24T15:18:38;97086.44;;;15.58;58.02
76815;BME280;65768;49.906;19.384;2023-04-24T15:21:12;97081.88;;;15.48;58.66
76815;BME280;65768;49.906;19.384;2023-04-24T15:23:41;97085.52;;;15.11;58.83
76815;BME280;65768;49.906;19.384;2023-04-24T15:26:21;97081.76;;;15.03;59.67
76815;BME280;65768;49.906;19.384;2023-04-24T15:28:55;97087.54;;;14.99;59.69
76815;BME280;65768;49.906;19.384;2023-04-24T15:31:31;97087.27;;;14.86;59.99
76815;BME280;65768;49.906;19.384;2023-04-24T15:34:25;97090.61;;;14.66;60.69
76815;BME280;65768;49.906;19.384;2023-04-24T15:36:59;97087.58;;;14.51;61.67
76815;BME280;65768;49.906;19.384;2023-04-24T15:39:53;97088.63;;;14.51;62.15
76815;BME280;65768;49.906;19.384;2023-04-24T15:42:30;97089.05;;;14.43;62.44
76815;BME280;65768;49.906;19.384;2023-04-24T15:48:13;97089.78;;;14.21;62.38
76815;BME280;65768;49.906;19.384;2023-04-24T15:51:10;97090.15;;;14.21;62.12
76815;BME280;65768;49.906;19.384;2023-04-24T15:56:53;97090.56;;;14.02;62.20
76815;BME280;65768;49.906;19.384;2023-04-24T15:59:31;97098.22;;;13.93;62.32
76815;BME280;65768;49.906;19.384;2023-04-24T16:02:25;97098.46;;;13.90;62.16
76815;BME280;65768;49.906;19.384;2023-04-24T16:05:05;97101.09;;;13.84;62.14
76815;BME280;65768;49.906;19.384;2023-04-24T16:07:50;97100.26;;;13.72;62.42
76815;BME280;65768;49.906;19.384;2023-04-24T16:10:49;97105.11;;;13.67;62.13
76815;BME280;65768;49.906;19.384;2023-04-24T16:13:40;97103.05;;;13.66;62.68
76815;BME280;65768;49.906;19.384;2023-04-24T16:16:54;97104.61;;;13.56;63.60
76815;BME280;65768;49.906;19.384;2023-04-24T16:19:54;97115.34;;;13.47;63.77
76815;BME280;65768;49.906;19.384;2023-04-24T16:31:54;97110.44;;;13.15;65.20
76815;BME280;65768;49.906;19.384;2023-04-24T16:34:54;97112.20;;;13.09;65.02
76815;BME280;65768;49.906;19.384;2023-04-24T16:37:57;97110.05;;;13.04;64.83
76815;BME280;65768;49.906;19.384;2023-04-24T16:43:39;97102.98;;;12.93;65.84
76815;BME280;65768;49.906;19.384;2023-04-24T16:53:28;97099.36;;;12.85;65.79
76815;BME280;65768;49.906;19.384;2023-04-24T16:56:32;97093.84;;;12.82;66.46
76815;BME280;65768;49.906;19.384;2023-04-24T17:02:28;97090.93;;;12.73;67.09
76815;BME280;65768;49.906;19.384;2023-04-24T17:05:38;97092.02;;;12.66;66.87
76815;BME280;65768;49.906;19.384;2023-04-24T17:12:21;97089.77;;;12.58;67.97
76815;BME280;65768;49.906;19.384;2023-04-24T17:21:59;97098.05;;;12.34;70.65
76815;BME280;65768;49.906;19.384;2023-04-24T17:28:24;97096.61;;;12.21;71.08
76815;BME280;65768;49.906;19.384;2023-04-24T17:31:07;97092.05;;;12.15;71.59
76815;BME280;65768;49.906;19.384;2023-04-24T17:34:00;97094.33;;;12.08;71.26
76815;BME280;65768;49.906;19.384;2023-04-24T17:49:27;97097.83;;;11.83;72.77
76815;BME280;65768;49.906;19.384;2023-04-24T17:56:05;97095.01;;;11.77;73.99
76815;BME280;65768;49.906;19.384;2023-04-24T17:59:19;97089.74;;;11.71;74.19
76815;BME280;65768;49.906;19.384;2023-04-24T18:02:13;97095.67;;;11.71;74.04
76815;BME280;65768;49.906;19.384;2023-04-24T18:05:14;97099.88;;;11.70;73.90
76815;BME280;65768;49.906;19.384;2023-04-24T18:14:36;97106.86;;;11.70;74.30
76815;BME280;65768;49.906;19.384;2023-04-24T18:18:07;97107.04;;;11.70;73.92
76815;BME280;65768;49.906;19.384;2023-04-24T18:21:18;97110.14;;;11.71;74.52
76815;BME280;65768;49.906;19.384;2023-04-24T18:40:36;97125.98;;;11.81;73.65
76815;BME280;65768;49.906;19.384;2023-04-24T18:43:46;97127.34;;;11.83;73.66
76815;BME280;65768;49.906;19.384;2023-04-24T18:46:53;97129.27;;;11.83;74.02
76815;BME280;65768;49.906;19.384;2023-04-24T18:50:04;97132.77;;;11.82;73.74
76815;BME280;65768;49.906;19.384;2023-04-24T18:52:58;97132.94;;;11.82;73.34
76815;BME280;65768;49.906;19.384;2023-04-24T18:56:07;97137.55;;;11.79;74.30
76815;BME280;65768;49.906;19.384;2023-04-24T18:59:16;97138.98;;;11.77;74.21
76815;BME280;65768;49.906;19.384;2023-04-24T19:02:18;97142.48;;;11.77;74.34
76815;BME280;65768;49.906;19.384;2023-04-24T19:05:29;97143.17;;;11.78;74.68
76815;BME280;65768;49.906;19.384;2023-04-24T19:11:17;97146.46;;;11.79;74.70
76815;BME280;65768;49.906;19.384;2023-04-24T19:14:25;97149.44;;;11.79;74.36
76815;BME280;65768;49.906;19.384;2023-04-24T19:17:09;97147.25;;;11.75;74.82
76815;BME280;65768;49.906;19.384;2023-04-24T19:20:10;97148.70;;;11.73;75.57
76815;BME280;65768;49.906;19.384;2023-04-24T19:23:10;97150.48;;;11.70;75.46
76815;BME280;65768;49.906;19.384;2023-04-24T19:29:19;97154.19;;;11.69;76.17
76815;BME280;65768;49.906;19.384;2023-04-24T19:32:26;97155.92;;;11.70;75.94
76815;BME280;65768;49.906;19.384;2023-04-24T19:35:26;97161.85;;;11.70;76.16
76815;BME280;65768;49.906;19.384;2023-04-24T19:38:21;97156.99;;;11.69;77.32
76815;BME280;65768;49.906;19.384;2023-04-24T19:41:36;97159.61;;;11.69;77.97
76815;BME280;65768;49.906;19.384;2023-04-24T19:50:56;97164.90;;;11.50;81.79
76815;BME280;65768;49.906;19.384;2023-04-24T19:53:48;97164.27;;;11.37;84.01
76815;BME280;65768;49.906;19.384;2023-04-24T20:00:14;97173.73;;;11.17;89.01
76815;BME280;65768;49.906;19.384;2023-04-24T20:33:27;97160.60;;;10.71;95.38
76815;BME280;65768;49.906;19.384;2023-04-24T20:40:28;97162.67;;;10.73;96.71
76815;BME280;65768;49.906;19.384;2023-04-24T20:43:46;97163.52;;;10.74;96.46
76815;BME280;65768;49.906;19.384;2023-04-24T20:53:36;97164.83;;;10.69;97.59
76815;BME280;65768;49.906;19.384;2023-04-24T20:59:56;97167.84;;;10.66;99.48
76815;BME280;65768;49.906;19.384;2023-04-24T21:06:07;97160.77;;;10.63;100.00
76815;BME280;65768;49.906;19.384;2023-04-24T21:56:30;97163.12;;;10.22;100.00
76815;BME280;65768;49.906;19.384;2023-04-24T22:03:11;97165.40;;;10.21;100.00
76815;BME280;65768;49.906;19.384;2023-04-24T22:20:14;97164.66;;;10.24;100.00
76815;BME280;65768;49.906;19.384;2023-04-24T22:23:15;97164.13;;;10.25;100.00
76815;BME280;65768;49.906;19.384;2023-04-24T22:42:42;97166.37;;;10.14;100.00
